Weather at Lommis Airfield

Public forecast

Using degrees Celsius for public forecast. Weather courtesy of forecast.io.

Closest aviation weather report (METAR) to Lommis Airfield

Closest report is Dübendorf Air Base, 16.3 nm (30.1 km) WSW. Retrieved 2022/01/29 07:20 UTC (28 minutes ago):

LSMD 290720Z AUTO 01002KT 9999NDV OVC110 00/M01 Q1033 RMK

Closest aviation forecast (TAF) to Lommis Airfield

Forecast is more than 12 hours old.

Closest forecast is Dübendorf Air Base, 16.3 nm (30.1 km) WSW. Retrieved 2022/01/28 17:00 UTC (15 hours ago):

TAF LSMD 281625Z 2817/2923 29006KT 9999 FEW030 BECMG 2817/2819 CAVOK BECMG 2821/2824 9000 MIFG NSC PROB30 2900/2905 3000 BCFG FEW003 TEMPO 2907/2911 CAVOK BECMG 2911/2913 9999 BKN025